createdAt,value
2022-12-22T00:00:24.191Z,0.00
2022-12-22T00:01:24.297Z,0.00
2022-12-22T00:02:25.338Z,0.00
2022-12-22T00:03:24.272Z,0.00
2022-12-22T00:04:25.209Z,0.00
2022-12-22T00:05:24.569Z,0.00
2022-12-22T00:06:24.476Z,0.00
2022-12-22T00:07:24.167Z,0.00
2022-12-22T00:08:24.128Z,0.00
2022-12-22T00:09:24.107Z,0.00
2022-12-22T00:10:24.527Z,0.00
2022-12-22T00:11:24.066Z,0.00
2022-12-22T00:12:24.956Z,0.00
2022-12-22T00:13:24.474Z,0.00
2022-12-22T00:14:24.123Z,0.00
2022-12-22T00:15:24.089Z,0.00
2022-12-22T00:16:24.070Z,0.00
2022-12-22T00:17:23.979Z,0.00
2022-12-22T00:18:23.966Z,0.00
2022-12-22T00:19:23.955Z,0.00
2022-12-22T00:20:23.979Z,0.00
2022-12-22T00:21:23.961Z,0.00
2022-12-22T00:22:23.928Z,0.00
2022-12-22T00:23:24.214Z,0.00
2022-12-22T00:24:23.931Z,0.00
2022-12-22T00:25:23.887Z,0.00
2022-12-22T00:26:23.894Z,0.00
2022-12-22T00:27:23.911Z,0.00
2022-12-22T00:28:24.946Z,0.00
2022-12-22T00:29:23.892Z,0.00
2022-12-22T00:30:23.829Z,0.00
2022-12-22T00:31:24.035Z,0.00
2022-12-22T00:32:24.371Z,0.00
2022-12-22T00:33:23.858Z,0.00
2022-12-22T00:34:27.778Z,0.00
2022-12-22T00:35:25.363Z,0.00
2022-12-22T00:36:23.800Z,0.00
2022-12-22T00:37:23.781Z,0.00
2022-12-22T00:38:23.923Z,0.00
2022-12-22T00:39:23.822Z,0.00
2022-12-22T00:40:23.751Z,0.00
2022-12-22T00:41:23.689Z,0.00
2022-12-22T00:42:23.753Z,0.00
2022-12-22T00:43:24.316Z,0.00
2022-12-22T00:44:23.633Z,0.00
2022-12-22T00:45:23.623Z,0.00
2022-12-22T00:46:23.715Z,0.00
2022-12-22T00:47:23.705Z,0.00
2022-12-22T00:48:24.569Z,0.00
2022-12-22T00:49:23.568Z,0.00
2022-12-22T00:50:24.286Z,0.00
2022-12-22T00:51:23.542Z,0.00
2022-12-22T00:52:23.559Z,0.00
2022-12-22T00:53:24.513Z,0.00
2022-12-22T00:54:23.649Z,0.00
2022-12-22T00:55:23.836Z,0.00
2022-12-22T00:56:23.674Z,0.00
2022-12-22T00:57:23.567Z,0.00
2022-12-22T00:58:23.545Z,0.00
2022-12-22T00:59:23.526Z,0.00
2022-12-22T01:00:23.423Z,0.00
2022-12-22T01:01:23.627Z,0.00
2022-12-22T01:02:23.772Z,0.00
2022-12-22T01:03:23.490Z,0.00
2022-12-22T01:04:23.430Z,0.00
2022-12-22T01:05:23.413Z,0.00
2022-12-22T01:06:23.390Z,0.00
2022-12-22T01:07:23.377Z,0.00
2022-12-22T01:08:23.404Z,0.00
2022-12-22T01:09:23.323Z,0.00
2022-12-22T01:10:23.304Z,0.00
2022-12-22T01:11:23.358Z,0.00
2022-12-22T01:12:23.263Z,0.00
2022-12-22T01:13:23.449Z,0.00
2022-12-22T01:14:23.362Z,0.00
2022-12-22T01:15:23.258Z,0.00
2022-12-22T01:16:23.346Z,0.00
2022-12-22T01:17:23.230Z,0.00
2022-12-22T01:18:23.210Z,0.00
2022-12-22T01:19:23.620Z,0.00
2022-12-22T01:20:23.209Z,0.00
2022-12-22T01:21:23.959Z,0.00
2022-12-22T01:22:24.108Z,0.00
2022-12-22T01:23:23.148Z,0.00
2022-12-22T01:24:23.107Z,0.00
2022-12-22T01:25:23.146Z,0.00
2022-12-22T01:26:23.991Z,0.00
2022-12-22T01:27:23.228Z,0.00
2022-12-22T01:28:23.056Z,0.00
2022-12-22T01:29:23.047Z,0.00
2022-12-22T01:30:24.776Z,0.00
2022-12-22T01:31:23.168Z,0.00
2022-12-22T01:32:23.194Z,0.00
2022-12-22T01:33:23.306Z,0.00
2022-12-22T01:34:24.250Z,0.00
2022-12-22T01:35:24.163Z,0.00
2022-12-22T01:36:23.007Z,0.00
2022-12-22T01:37:23.965Z,0.00
2022-12-22T01:38:22.942Z,0.00
2022-12-22T01:39:23.699Z,0.00
2022-12-22T01:40:23.140Z,0.00
2022-12-22T01:41:22.930Z,0.00
2022-12-22T01:42:22.930Z,0.00
2022-12-22T01:43:23.891Z,0.00
2022-12-22T01:44:22.868Z,0.00
2022-12-22T01:45:22.869Z,0.00
2022-12-22T01:46:23.039Z,0.00
2022-12-22T01:47:22.879Z,0.00
2022-12-22T01:48:23.920Z,0.00
2022-12-22T01:49:23.021Z,0.00
2022-12-22T01:50:22.821Z,0.00
2022-12-22T01:51:23.308Z,0.00
2022-12-22T01:52:22.843Z,0.00
2022-12-22T01:53:22.787Z,0.00
2022-12-22T01:54:22.761Z,0.00
2022-12-22T01:55:22.724Z,0.00
2022-12-22T01:56:22.887Z,0.00
2022-12-22T01:57:22.724Z,0.00
2022-12-22T01:58:22.697Z,0.00
2022-12-22T01:59:22.701Z,0.00
2022-12-22T02:00:23.796Z,0.00
2022-12-22T02:01:22.672Z,0.00
2022-12-22T02:02:22.750Z,0.00
2022-12-22T02:03:23.378Z,0.00
2022-12-22T02:04:22.664Z,0.00
2022-12-22T02:05:22.641Z,0.00
2022-12-22T02:06:22.609Z,0.00
2022-12-22T02:07:22.575Z,0.00
2022-12-22T02:08:22.901Z,0.00
2022-12-22T02:09:22.556Z,0.00
2022-12-22T02:10:22.589Z,0.00
2022-12-22T02:11:22.584Z,0.00
2022-12-22T02:12:22.783Z,0.00
2022-12-22T02:13:23.469Z,0.00
2022-12-22T02:14:27.708Z,0.00
2022-12-22T02:15:23.485Z,0.00
2022-12-22T02:16:22.496Z,0.00
2022-12-22T02:17:22.696Z,0.00
2022-12-22T02:18:22.464Z,0.00
2022-12-22T02:19:22.441Z,0.00
2022-12-22T02:20:22.414Z,0.00
2022-12-22T02:21:22.444Z,0.00
2022-12-22T02:22:22.397Z,0.00
2022-12-22T02:23:23.640Z,0.00
2022-12-22T02:24:23.827Z,0.00
2022-12-22T02:25:22.603Z,0.00
2022-12-22T02:26:22.498Z,0.00
2022-12-22T02:27:22.520Z,0.00
2022-12-22T02:28:22.297Z,0.00
2022-12-22T02:29:22.300Z,0.00
2022-12-22T02:30:23.482Z,0.00
2022-12-22T02:31:22.315Z,0.00
2022-12-22T02:32:22.298Z,0.00
2022-12-22T02:33:22.350Z,0.00
2022-12-22T02:34:22.253Z,0.00
2022-12-22T02:35:22.196Z,0.00
2022-12-22T02:36:22.217Z,0.00
2022-12-22T02:37:22.407Z,0.00
2022-12-22T02:38:22.178Z,0.00
2022-12-22T02:39:22.170Z,0.00
2022-12-22T02:40:23.053Z,0.00
2022-12-22T02:41:22.133Z,0.00
2022-12-22T02:42:22.132Z,0.00
2022-12-22T02:43:22.157Z,0.00
2022-12-22T02:44:22.093Z,0.00
2022-12-22T02:45:22.110Z,0.00
2022-12-22T02:46:22.087Z,0.00
2022-12-22T02:47:22.094Z,0.00
2022-12-22T02:48:22.051Z,0.00
2022-12-22T02:49:23.163Z,0.00
2022-12-22T02:50:22.212Z,0.00
2022-12-22T02:51:23.113Z,0.00
2022-12-22T02:52:23.011Z,0.00
2022-12-22T02:53:21.997Z,0.00
2022-12-22T02:54:21.971Z,0.00
2022-12-22T02:55:22.005Z,0.00
2022-12-22T02:56:21.948Z,0.00
2022-12-22T02:57:22.932Z,0.00
2022-12-22T02:58:21.931Z,0.00
2022-12-22T02:59:22.746Z,0.00
2022-12-22T03:00:21.957Z,0.00
2022-12-22T03:01:21.919Z,0.00
2022-12-22T03:02:22.960Z,0.00
2022-12-22T03:03:22.145Z,0.00
2022-12-22T03:04:21.877Z,0.00
2022-12-22T03:05:21.820Z,0.00
2022-12-22T03:06:21.965Z,0.00
2022-12-22T03:07:21.812Z,0.00
2022-12-22T03:08:22.324Z,0.00
2022-12-22T03:09:21.786Z,0.00
2022-12-22T03:10:21.782Z,0.00
2022-12-22T03:11:21.747Z,0.00
2022-12-22T03:12:21.804Z,0.00
2022-12-22T03:13:21.723Z,0.00
2022-12-22T03:14:21.701Z,0.00
2022-12-22T03:15:22.631Z,0.00
2022-12-22T03:16:21.746Z,0.00
2022-12-22T03:17:22.615Z,0.00
2022-12-22T03:18:21.681Z,0.00
2022-12-22T03:19:21.646Z,0.00
2022-12-22T03:20:21.677Z,0.00
2022-12-22T03:21:22.674Z,0.00
2022-12-22T03:22:21.686Z,0.00
2022-12-22T03:23:21.619Z,0.00
2022-12-22T03:24:21.568Z,0.00
2022-12-22T03:25:21.563Z,0.00
2022-12-22T03:26:21.557Z,0.00
2022-12-22T03:27:21.538Z,0.00
2022-12-22T03:28:21.578Z,0.00
2022-12-22T03:29:21.672Z,0.00
2022-12-22T03:30:21.529Z,0.00
2022-12-22T03:31:21.515Z,0.00
2022-12-22T03:32:21.478Z,0.00
2022-12-22T03:33:21.494Z,0.00
2022-12-22T03:34:21.498Z,0.00
2022-12-22T03:35:21.445Z,0.00
2022-12-22T03:36:21.499Z,0.00
2022-12-22T03:37:21.415Z,0.00
2022-12-22T03:38:21.415Z,0.00
2022-12-22T03:39:21.387Z,0.00
2022-12-22T03:40:21.408Z,0.00
2022-12-22T03:41:21.352Z,0.00
2022-12-22T03:42:22.196Z,0.00
2022-12-22T03:43:21.329Z,0.00
2022-12-22T03:44:21.358Z,0.00
2022-12-22T03:45:21.310Z,0.00
2022-12-22T03:46:21.966Z,0.00
2022-12-22T03:47:22.234Z,0.00
2022-12-22T03:48:21.313Z,0.00
2022-12-22T03:49:21.290Z,0.00
2022-12-22T03:50:21.311Z,0.00
2022-12-22T03:51:21.312Z,0.00
2022-12-22T03:52:21.226Z,0.00
2022-12-22T03:53:21.234Z,0.00
2022-12-22T03:54:22.161Z,0.00
2022-12-22T03:55:21.351Z,0.00
2022-12-22T03:56:21.166Z,0.00
2022-12-22T03:57:21.164Z,0.00
2022-12-22T03:58:21.166Z,0.00
2022-12-22T03:59:22.104Z,0.00
2022-12-22T04:00:21.387Z,0.00
2022-12-22T04:01:21.334Z,0.00
2022-12-22T04:02:21.137Z,0.00
2022-12-22T04:03:21.423Z,0.00
2022-12-22T04:04:21.067Z,0.00
2022-12-22T04:05:21.063Z,0.00
2022-12-22T04:06:21.071Z,0.00
2022-12-22T04:07:21.869Z,0.00
2022-12-22T04:08:21.053Z,0.00
2022-12-22T04:09:21.014Z,0.00
2022-12-22T04:10:20.995Z,0.00
2022-12-22T04:11:21.022Z,0.00
2022-12-22T04:12:21.204Z,0.00
2022-12-22T04:13:20.973Z,0.00
2022-12-22T04:14:20.975Z,0.00
2022-12-22T04:15:21.814Z,0.00
2022-12-22T04:16:21.006Z,0.00
2022-12-22T04:17:20.915Z,0.00
2022-12-22T04:18:20.892Z,0.00
2022-12-22T04:19:21.025Z,0.00
2022-12-22T04:20:22.140Z,0.00
2022-12-22T04:21:20.853Z,0.00
2022-12-22T04:22:20.966Z,0.00
2022-12-22T04:23:20.813Z,0.00
2022-12-22T04:24:20.806Z,0.00
2022-12-22T04:25:21.649Z,0.00
2022-12-22T04:26:20.789Z,0.00
2022-12-22T04:27:20.915Z,0.00
2022-12-22T04:28:20.810Z,0.00
2022-12-22T04:29:20.767Z,0.00
2022-12-22T04:30:20.768Z,0.00
2022-12-22T04:31:20.779Z,0.00
2022-12-22T04:32:21.490Z,0.00
2022-12-22T04:33:20.731Z,0.00
2022-12-22T04:34:20.815Z,0.00
2022-12-22T04:35:20.686Z,0.00
2022-12-22T04:36:20.652Z,0.00
2022-12-22T04:37:20.666Z,0.00
2022-12-22T04:38:20.830Z,0.00
2022-12-22T04:39:20.650Z,0.00
2022-12-22T04:40:20.688Z,0.00
2022-12-22T04:41:20.772Z,0.00
2022-12-22T04:42:20.627Z,0.00
2022-12-22T04:43:20.569Z,0.00
2022-12-22T04:44:21.367Z,0.00
2022-12-22T04:45:20.733Z,0.00
2022-12-22T04:46:20.611Z,0.00
2022-12-22T04:47:20.519Z,0.00
2022-12-22T04:48:20.511Z,0.00
2022-12-22T04:49:20.516Z,0.00
2022-12-22T04:50:20.501Z,0.00
2022-12-22T04:51:20.532Z,0.00
2022-12-22T04:52:20.473Z,0.00
2022-12-22T04:53:20.440Z,0.00
2022-12-22T04:54:20.463Z,0.00
2022-12-22T04:55:20.419Z,0.00
2022-12-22T04:56:21.228Z,0.00
2022-12-22T04:57:20.413Z,0.00
2022-12-22T04:58:20.415Z,0.00
2022-12-22T04:59:20.451Z,0.00
2022-12-22T05:00:20.499Z,0.00
2022-12-22T05:01:20.444Z,0.00
2022-12-22T05:02:20.456Z,0.00
2022-12-22T05:03:20.408Z,0.00
2022-12-22T05:04:23.886Z,0.00
2022-12-22T05:05:20.323Z,0.00
2022-12-22T05:06:20.283Z,0.00
2022-12-22T05:07:20.383Z,0.00
2022-12-22T05:08:20.279Z,0.00
2022-12-22T05:09:20.250Z,0.00
2022-12-22T05:10:20.242Z,0.00
2022-12-22T05:11:21.344Z,0.00
2022-12-22T05:12:20.200Z,0.00
2022-12-22T05:13:20.236Z,0.00
2022-12-22T05:14:20.175Z,0.00
2022-12-22T05:15:20.222Z,0.00
2022-12-22T05:16:20.176Z,0.00
2022-12-22T05:17:20.128Z,0.00
2022-12-22T05:18:20.166Z,0.00
2022-12-22T05:19:20.093Z,0.00
2022-12-22T05:20:20.095Z,0.00
2022-12-22T05:21:20.086Z,0.00
2022-12-22T05:22:20.067Z,0.00
2022-12-22T05:23:21.084Z,0.00
2022-12-22T05:24:20.049Z,0.00
2022-12-22T05:25:20.060Z,0.00
2022-12-22T05:26:20.091Z,0.00
2022-12-22T05:27:20.006Z,0.00
2022-12-22T05:28:19.986Z,0.00
2022-12-22T05:29:19.995Z,0.00
2022-12-22T05:30:19.978Z,0.00
2022-12-22T05:31:20.105Z,0.00
2022-12-22T05:32:19.940Z,0.00
2022-12-22T05:33:19.940Z,0.00
2022-12-22T05:34:19.927Z,0.00
2022-12-22T05:35:19.939Z,0.00
2022-12-22T05:36:20.498Z,0.00
2022-12-22T05:37:19.992Z,0.00
2022-12-22T05:38:19.851Z,0.00
2022-12-22T05:39:19.840Z,0.00
2022-12-22T05:40:19.864Z,0.00
2022-12-22T05:41:21.011Z,0.00
2022-12-22T05:42:19.831Z,0.00
2022-12-22T05:43:19.811Z,0.00
2022-12-22T05:44:19.786Z,0.00
2022-12-22T05:45:19.819Z,0.00
2022-12-22T05:46:19.842Z,0.00
2022-12-22T05:47:19.771Z,0.00
2022-12-22T05:48:26.117Z,0.00
2022-12-22T05:49:21.197Z,0.00
2022-12-22T05:50:19.779Z,0.00
2022-12-22T05:51:19.682Z,0.00
2022-12-22T05:52:19.859Z,0.00
2022-12-22T05:53:19.664Z,0.00
2022-12-22T05:54:19.693Z,0.00
2022-12-22T05:55:19.674Z,0.00
2022-12-22T05:56:19.631Z,0.00
2022-12-22T05:57:19.631Z,0.00
2022-12-22T05:58:19.623Z,0.00
2022-12-22T05:59:19.669Z,0.00
2022-12-22T06:00:19.582Z,0.00
2022-12-22T06:01:19.804Z,0.00
2022-12-22T06:02:19.801Z,0.00
2022-12-22T06:03:19.691Z,0.00
2022-12-22T06:04:19.670Z,0.00
2022-12-22T06:05:19.546Z,0.00
2022-12-22T06:06:19.563Z,0.00
2022-12-22T06:07:19.536Z,0.00
2022-12-22T06:08:19.496Z,0.00
2022-12-22T06:09:19.560Z,0.00
2022-12-22T06:10:19.704Z,0.00
2022-12-22T06:11:19.489Z,0.00
2022-12-22T06:12:19.430Z,0.00
2022-12-22T06:13:19.415Z,0.00
2022-12-22T06:14:20.402Z,0.00
2022-12-22T06:15:20.306Z,0.00
2022-12-22T06:16:19.754Z,0.00
2022-12-22T06:17:19.368Z,0.00
2022-12-22T06:18:19.401Z,0.00
2022-12-22T06:19:19.737Z,0.00
2022-12-22T06:20:19.337Z,0.00
2022-12-22T06:21:19.313Z,0.00
2022-12-22T06:22:19.285Z,0.00
2022-12-22T06:23:19.268Z,0.00
2022-12-22T06:24:19.299Z,0.00
2022-12-22T06:25:20.369Z,0.00
2022-12-22T06:26:19.289Z,0.00
2022-12-22T06:27:19.294Z,0.00
2022-12-22T06:28:19.238Z,0.00
2022-12-22T06:29:19.187Z,0.00
2022-12-22T06:30:19.193Z,0.00
2022-12-22T06:31:19.336Z,0.00
2022-12-22T06:32:19.821Z,0.00
2022-12-22T06:33:19.337Z,0.00
2022-12-22T06:34:19.132Z,0.00
2022-12-22T06:35:19.121Z,0.00
2022-12-22T06:36:20.638Z,0.00
2022-12-22T06:37:19.150Z,0.00
2022-12-22T06:38:19.293Z,0.00
2022-12-22T06:39:19.150Z,0.00
2022-12-22T06:40:19.950Z,0.00
2022-12-22T06:41:19.073Z,0.00
2022-12-22T06:42:19.079Z,0.00
2022-12-22T06:43:19.075Z,0.00
2022-12-22T06:44:19.030Z,0.00
2022-12-22T06:45:19.158Z,0.00
2022-12-22T06:46:19.087Z,0.00
2022-12-22T06:47:18.981Z,0.00
2022-12-22T06:48:18.986Z,0.00
2022-12-22T06:49:18.979Z,0.00
2022-12-22T06:50:18.978Z,0.00
2022-12-22T06:51:18.931Z,0.00
2022-12-22T06:52:18.892Z,4.00
2022-12-22T06:53:19.115Z,4.00
2022-12-22T06:54:24.035Z,0.00
2022-12-22T06:55:19.899Z,4.00
2022-12-22T06:56:18.961Z,4.00
2022-12-22T06:57:18.869Z,4.00
2022-12-22T06:58:18.890Z,4.00
2022-12-22T06:59:18.860Z,4.00
2022-12-22T07:00:18.818Z,8.00
2022-12-22T07:01:18.853Z,8.00
2022-12-22T07:02:18.953Z,8.00
2022-12-22T07:03:18.988Z,12.00
2022-12-22T07:04:18.776Z,12.00
2022-12-22T07:05:19.210Z,12.00
2022-12-22T07:06:19.757Z,16.00
2022-12-22T07:07:18.927Z,16.00
2022-12-22T07:08:18.686Z,16.00
2022-12-22T07:09:18.724Z,24.00
2022-12-22T07:10:18.707Z,24.00
2022-12-22T07:11:18.654Z,28.00
2022-12-22T07:12:18.635Z,36.00
2022-12-22T07:13:18.682Z,40.00
2022-12-22T07:14:18.603Z,44.00
2022-12-22T07:15:18.662Z,56.00
2022-12-22T07:16:18.711Z,64.00
2022-12-22T07:17:18.602Z,68.00
2022-12-22T07:18:18.597Z,76.00
2022-12-22T07:19:18.616Z,84.00
2022-12-22T07:20:18.582Z,88.00
2022-12-22T07:21:18.545Z,96.00
2022-12-22T07:22:21.641Z,100.00
2022-12-22T07:23:19.521Z,100.00
2022-12-22T07:24:18.544Z,104.00
2022-12-22T07:25:18.490Z,104.00
2022-12-22T07:26:18.508Z,108.00
2022-12-22T07:27:18.472Z,112.00
2022-12-22T07:28:21.021Z,120.00
2022-12-22T07:29:18.482Z,128.00
2022-12-22T07:30:18.442Z,136.00
2022-12-22T07:31:18.496Z,148.00
2022-12-22T07:32:18.410Z,160.00
2022-12-22T07:33:18.405Z,172.00
2022-12-22T07:34:18.363Z,184.00
2022-12-22T07:35:18.431Z,204.00
2022-12-22T07:36:18.423Z,224.00
2022-12-22T07:37:18.345Z,232.00
2022-12-22T07:38:18.346Z,252.00
2022-12-22T07:39:18.342Z,268.00
2022-12-22T07:40:18.271Z,288.00
2022-12-22T07:41:18.268Z,316.00
2022-12-22T07:42:18.271Z,340.00
2022-12-22T07:43:18.240Z,356.00
2022-12-22T07:44:18.290Z,376.00
2022-12-22T07:45:19.343Z,372.00
2022-12-22T07:46:18.315Z,380.00
2022-12-22T07:47:18.292Z,416.00
2022-12-22T07:48:18.200Z,440.00
2022-12-22T07:49:18.165Z,448.00
2022-12-22T07:50:18.205Z,448.00
2022-12-22T07:51:19.124Z,460.00
2022-12-22T07:52:18.204Z,476.00
2022-12-22T07:53:18.144Z,480.00
2022-12-22T07:54:18.118Z,456.00
2022-12-22T07:55:18.100Z,428.00
2022-12-22T07:56:18.113Z,416.00
2022-12-22T07:57:18.111Z,388.00
2022-12-22T07:58:18.067Z,400.00
2022-12-22T07:59:18.074Z,420.00
2022-12-22T08:00:18.124Z,480.00
2022-12-22T08:01:18.076Z,512.00
2022-12-22T08:02:18.144Z,504.00
2022-12-22T08:03:18.063Z,504.00
2022-12-22T08:04:18.073Z,500.00
2022-12-22T08:05:18.114Z,492.00
2022-12-22T08:06:17.980Z,532.00
2022-12-22T08:07:17.965Z,552.00
2022-12-22T08:08:17.972Z,576.00
2022-12-22T08:09:17.948Z,592.00
2022-12-22T08:10:17.898Z,656.00
2022-12-22T08:11:17.922Z,712.00
2022-12-22T08:12:17.919Z,736.00
2022-12-22T08:13:17.944Z,684.00
2022-12-22T08:14:17.888Z,636.00
2022-12-22T08:15:17.909Z,636.00
2022-12-22T08:16:17.969Z,628.00
2022-12-22T08:17:17.927Z,652.00
2022-12-22T08:18:17.811Z,672.00
2022-12-22T08:19:17.838Z,628.00
2022-12-22T08:20:17.808Z,604.00
2022-12-22T08:21:17.769Z,604.00
2022-12-22T08:22:17.757Z,600.00
2022-12-22T08:23:17.787Z,608.00
2022-12-22T08:24:17.706Z,624.00
2022-12-22T08:25:17.779Z,652.00
2022-12-22T08:26:17.748Z,688.00
2022-12-22T08:27:24.007Z,724.00
2022-12-22T08:28:18.733Z,768.00
2022-12-22T08:29:17.679Z,808.00
2022-12-22T08:30:17.783Z,832.00
2022-12-22T08:31:17.683Z,844.00
2022-12-22T08:32:17.728Z,848.00
2022-12-22T08:33:17.639Z,872.00
2022-12-22T08:34:17.607Z,872.00
2022-12-22T08:35:17.651Z,844.00
2022-12-22T08:36:17.563Z,832.00
2022-12-22T08:37:17.550Z,844.00
2022-12-22T08:38:17.580Z,872.00
2022-12-22T08:39:17.616Z,900.00
2022-12-22T08:40:17.701Z,908.00
2022-12-22T08:41:17.531Z,880.00
2022-12-22T08:42:17.551Z,848.00
2022-12-22T08:43:17.531Z,812.00
2022-12-22T08:44:17.480Z,780.00
2022-12-22T08:45:17.467Z,772.00
2022-12-22T08:46:17.590Z,804.00
2022-12-22T08:47:17.628Z,832.00
2022-12-22T08:48:17.611Z,844.00
2022-12-22T08:49:17.427Z,856.00
2022-12-22T08:50:17.572Z,872.00
2022-12-22T08:51:18.651Z,900.00
2022-12-22T08:52:19.424Z,932.00
2022-12-22T08:53:45.244Z,944.00
2022-12-22T08:54:18.398Z,964.00
2022-12-22T08:55:17.372Z,992.00
2022-12-22T08:56:17.379Z,1016.00
2022-12-22T08:57:17.378Z,1044.00
2022-12-22T08:58:17.298Z,1120.00
2022-12-22T08:59:18.387Z,1200.00
2022-12-22T09:00:17.306Z,1280.00
2022-12-22T09:01:17.672Z,1300.00
2022-12-22T09:02:17.503Z,1296.00
2022-12-22T09:03:17.329Z,1264.00
2022-12-22T09:04:17.243Z,1204.00
2022-12-22T09:05:17.259Z,1136.00
2022-12-22T09:06:17.299Z,1108.00
2022-12-22T09:07:17.398Z,1120.00
2022-12-22T09:08:17.157Z,1132.00
2022-12-22T09:09:17.147Z,1172.00
2022-12-22T09:10:17.146Z,1224.00
2022-12-22T09:11:17.145Z,1252.00
2022-12-22T09:12:17.114Z,1216.00
2022-12-22T09:13:17.250Z,1180.00
2022-12-22T09:14:17.094Z,1140.00
2022-12-22T09:15:17.879Z,1116.00
2022-12-22T09:16:17.130Z,1092.00
2022-12-22T09:17:17.369Z,1060.00
2022-12-22T09:18:17.073Z,1024.00
2022-12-22T09:19:17.060Z,992.00
2022-12-22T09:20:17.915Z,944.00
2022-12-22T09:21:17.119Z,916.00
2022-12-22T09:22:21.747Z,916.00
2022-12-22T09:23:18.017Z,888.00
2022-12-22T09:24:16.974Z,848.00
2022-12-22T09:25:16.941Z,824.00
2022-12-22T09:26:17.202Z,816.00
2022-12-22T09:27:17.037Z,828.00
2022-12-22T09:28:16.901Z,852.00
2022-12-22T09:29:17.054Z,872.00
2022-12-22T09:30:17.867Z,840.00
2022-12-22T09:31:16.904Z,816.00
2022-12-22T09:32:16.932Z,804.00
2022-12-22T09:33:16.912Z,800.00
2022-12-22T09:34:18.474Z,768.00
2022-12-22T09:35:16.856Z,764.00
2022-12-22T09:36:16.853Z,800.00
2022-12-22T09:37:16.830Z,804.00
2022-12-22T09:38:16.783Z,888.00
2022-12-22T09:39:19.912Z,964.00
2022-12-22T09:40:16.771Z,1056.00
2022-12-22T09:41:17.946Z,1196.00
2022-12-22T09:42:16.748Z,1352.00
2022-12-22T09:43:17.744Z,1572.00
2022-12-22T09:44:16.712Z,1676.00
2022-12-22T09:45:17.382Z,1844.00
2022-12-22T09:46:16.813Z,2084.00
2022-12-22T09:47:16.709Z,2212.00
2022-12-22T09:48:16.667Z,2348.00
2022-12-22T09:49:16.684Z,2488.00
2022-12-22T09:50:16.671Z,2636.00
2022-12-22T09:51:22.704Z,2576.00
2022-12-22T09:52:17.622Z,2456.00
2022-12-22T09:53:16.629Z,2372.00
2022-12-22T09:54:16.585Z,2264.00
2022-12-22T09:55:16.604Z,2092.00
2022-12-22T09:56:17.545Z,1936.00
2022-12-22T09:57:17.532Z,1896.00
2022-12-22T09:58:20.683Z,1908.00
2022-12-22T09:59:17.536Z,1892.00
2022-12-22T10:00:17.654Z,1840.00
2022-12-22T10:01:16.636Z,1816.00
2022-12-22T10:02:16.536Z,1888.00
2022-12-22T10:03:16.524Z,1908.00
2022-12-22T10:04:16.639Z,1928.00
2022-12-22T10:05:16.595Z,2036.00
2022-12-22T10:06:16.465Z,2108.00
2022-12-22T10:07:16.407Z,2088.00
2022-12-22T10:08:16.442Z,2112.00
2022-12-22T10:09:46.058Z,2012.00
2022-12-22T10:10:17.387Z,1944.00
2022-12-22T10:11:16.368Z,1932.00
2022-12-22T10:12:16.619Z,2116.00
2022-12-22T10:13:16.355Z,2132.00
2022-12-22T10:14:16.317Z,2024.00
2022-12-22T10:15:21.790Z,2144.00
2022-12-22T10:16:16.497Z,2064.00
2022-12-22T10:17:16.369Z,2140.00
2022-12-22T10:18:16.296Z,2328.00
2022-12-22T10:19:16.259Z,2468.00
2022-12-22T10:20:16.382Z,2380.00
2022-12-22T10:21:17.167Z,2380.00
2022-12-22T10:22:16.850Z,2468.00
2022-12-22T10:23:16.211Z,2488.00
2022-12-22T10:24:16.189Z,2584.00
2022-12-22T10:25:16.182Z,2644.00
2022-12-22T10:26:28.099Z,2568.00
2022-12-22T10:27:17.230Z,2680.00
2022-12-22T10:28:16.683Z,2872.00
2022-12-22T10:29:16.129Z,3168.00
2022-12-22T10:30:16.159Z,3316.00
2022-12-22T10:31:16.163Z,3528.00
2022-12-22T10:32:16.230Z,3760.00
2022-12-22T10:33:16.109Z,4120.00
2022-12-22T10:34:16.116Z,4588.00
2022-12-22T10:35:17.025Z,5016.00
2022-12-22T10:36:16.064Z,5280.00
2022-12-22T10:37:16.071Z,5492.00
2022-12-22T10:38:21.581Z,5820.00
2022-12-22T10:39:17.002Z,6008.00
2022-12-22T10:40:15.989Z,5928.00
2022-12-22T10:41:15.974Z,6016.00
2022-12-22T10:42:17.202Z,5676.00
2022-12-22T10:43:16.016Z,5252.00
2022-12-22T10:44:16.010Z,5132.00
2022-12-22T10:45:16.029Z,4760.00
2022-12-22T10:46:16.907Z,4348.00
2022-12-22T10:47:17.984Z,4364.00
2022-12-22T10:48:15.923Z,4760.00
2022-12-22T10:49:15.902Z,4600.00
2022-12-22T10:50:15.926Z,4488.00
2022-12-22T10:51:15.873Z,4468.00
2022-12-22T10:52:15.865Z,4168.00
2022-12-22T10:53:15.846Z,3996.00
2022-12-22T10:54:16.008Z,3760.00
2022-12-22T10:55:15.842Z,3644.00
2022-12-22T10:56:15.766Z,3828.00
2022-12-22T10:57:15.861Z,4032.00
2022-12-22T10:58:15.799Z,3876.00
2022-12-22T10:59:16.597Z,3868.00
2022-12-22T11:00:15.766Z,3992.00
2022-12-22T11:01:15.758Z,3908.00
2022-12-22T11:02:16.485Z,3648.00
2022-12-22T11:03:22.422Z,3492.00
2022-12-22T11:04:16.698Z,3560.00
2022-12-22T11:05:15.686Z,3372.00
2022-12-22T11:06:15.678Z,3416.00
2022-12-22T11:07:15.646Z,3708.00
2022-12-22T11:08:15.611Z,3580.00
2022-12-22T11:09:33.308Z,3376.00
2022-12-22T11:10:16.660Z,3136.00
2022-12-22T11:11:15.567Z,3168.00
2022-12-22T11:12:15.967Z,3080.00
2022-12-22T11:13:15.555Z,2868.00
2022-12-22T11:14:15.538Z,2772.00
2022-12-22T11:15:21.933Z,2376.00
2022-12-22T11:16:16.569Z,2440.00
2022-12-22T11:17:15.712Z,2732.00
2022-12-22T11:18:15.500Z,2932.00
2022-12-22T11:19:15.503Z,2856.00
2022-12-22T11:20:16.631Z,2448.00
2022-12-22T11:21:22.027Z,2596.00
2022-12-22T11:22:16.450Z,2712.00
2022-12-22T11:23:15.463Z,2680.00
2022-12-22T11:24:15.408Z,2380.00
2022-12-22T11:25:15.470Z,2488.00
2022-12-22T11:26:15.396Z,2880.00
2022-12-22T11:27:15.412Z,3032.00
2022-12-22T11:28:16.371Z,3012.00
2022-12-22T11:29:15.384Z,3252.00
2022-12-22T11:30:15.388Z,3764.00
2022-12-22T11:31:15.428Z,3892.00
2022-12-22T11:32:15.367Z,4092.00
2022-12-22T11:33:15.317Z,4008.00
2022-12-22T11:34:20.868Z,3824.00
2022-12-22T11:35:16.322Z,3860.00
2022-12-22T11:36:16.192Z,3824.00
2022-12-22T11:37:15.326Z,3996.00
2022-12-22T11:38:15.282Z,4128.00
2022-12-22T11:39:15.237Z,3556.00
2022-12-22T11:40:15.841Z,3172.00
2022-12-22T11:41:15.497Z,3376.00
2022-12-22T11:42:15.202Z,2864.00
2022-12-22T11:43:15.210Z,2140.00
2022-12-22T11:44:15.156Z,2088.00
2022-12-22T11:45:15.169Z,2584.00
2022-12-22T11:46:15.640Z,2712.00
2022-12-22T11:47:15.181Z,2896.00
2022-12-22T11:48:15.134Z,2820.00
2022-12-22T11:49:15.136Z,2740.00
2022-12-22T11:50:57.716Z,2556.00
2022-12-22T11:51:22.224Z,3084.00
2022-12-22T11:52:16.073Z,3252.00
2022-12-22T11:53:15.074Z,2976.00
2022-12-22T11:54:15.041Z,2996.00
2022-12-22T11:55:15.031Z,3184.00
2022-12-22T11:56:15.072Z,2664.00
2022-12-22T11:57:15.057Z,2792.00
2022-12-22T11:58:14.959Z,3160.00
2022-12-22T11:59:15.132Z,2916.00
2022-12-22T12:00:15.037Z,2816.00
2022-12-22T12:01:20.542Z,2924.00
2022-12-22T12:02:16.061Z,3412.00
2022-12-22T12:03:14.993Z,3200.00
2022-12-22T12:04:15.184Z,3292.00
2022-12-22T12:05:14.925Z,3168.00
2022-12-22T12:06:14.882Z,3152.00
2022-12-22T12:07:16.073Z,3624.00
2022-12-22T12:08:14.853Z,3996.00
2022-12-22T12:09:14.830Z,4156.00
2022-12-22T12:10:14.827Z,3952.00
2022-12-22T12:11:14.801Z,3724.00
2022-12-22T12:12:14.817Z,4344.00
2022-12-22T12:13:18.154Z,5164.00
2022-12-22T12:14:16.037Z,5236.00
2022-12-22T12:15:15.949Z,5792.00
2022-12-22T12:16:15.971Z,4488.00
2022-12-22T12:17:14.827Z,4032.00
2022-12-22T12:18:14.729Z,4200.00
2022-12-22T12:19:16.555Z,4532.00
2022-12-22T12:20:14.812Z,4064.00
2022-12-22T12:21:14.703Z,4040.00
2022-12-22T12:22:14.755Z,3512.00
2022-12-22T12:23:14.703Z,3560.00
2022-12-22T12:24:14.733Z,3604.00
2022-12-22T12:25:15.580Z,3832.00
2022-12-22T12:26:15.415Z,3520.00
2022-12-22T12:27:14.634Z,3188.00
2022-12-22T12:28:15.573Z,3468.00
2022-12-22T12:29:15.651Z,4128.00
2022-12-22T12:30:37.609Z,3832.00
2022-12-22T12:31:20.062Z,3924.00
2022-12-22T12:32:16.425Z,4108.00
2022-12-22T12:33:14.635Z,3764.00
2022-12-22T12:34:14.537Z,4260.00
2022-12-22T12:35:14.502Z,5152.00
2022-12-22T12:36:14.626Z,5060.00
2022-12-22T12:37:14.477Z,4792.00
2022-12-22T12:38:32.552Z,4608.00
2022-12-22T12:39:15.465Z,4816.00
2022-12-22T12:40:14.495Z,4736.00
2022-12-22T12:41:15.505Z,4276.00
2022-12-22T12:42:14.534Z,4120.00
2022-12-22T12:43:16.615Z,3616.00
2022-12-22T12:44:14.465Z,2964.00
2022-12-22T12:45:14.343Z,3200.00
2022-12-22T12:46:14.911Z,3044.00
2022-12-22T12:47:15.489Z,2816.00
2022-12-22T12:48:14.614Z,2452.00